sensor_id;sensor_type;location;lat;lon;timestamp;pressure;altitude;pressure_sealevel;temperature;humidity
47588;BME280;34356;45.788;12.046;2022-09-28T00:02:20;98798.39;;;15.36;46.97
47588;BME280;34356;45.788;12.046;2022-09-28T00:04:46;98796.75;;;15.16;46.94
47588;BME280;34356;45.788;12.046;2022-09-28T00:07:13;98795.44;;;15.15;46.99
47588;BME280;34356;45.788;12.046;2022-09-28T00:09:40;98796.70;;;15.64;47.00
47588;BME280;34356;45.788;12.046;2022-09-28T00:12:08;98798.39;;;15.17;46.97
47588;BME280;34356;45.788;12.046;2022-09-28T00:14:35;98798.76;;;15.13;46.88
47588;BME280;34356;45.788;12.046;2022-09-28T00:17:01;98804.91;;;15.27;47.04
47588;BME280;34356;45.788;12.046;2022-09-28T00:19:28;98802.21;;;15.15;47.21
47588;BME280;34356;45.788;12.046;2022-09-28T00:21:55;98803.19;;;14.66;47.36
47588;BME280;34356;45.788;12.046;2022-09-28T00:24:23;98799.32;;;15.08;47.36
47588;BME280;34356;45.788;12.046;2022-09-28T00:26:53;98800.64;;;15.03;47.43
47588;BME280;34356;45.788;12.046;2022-09-28T00:29:22;98798.25;;;15.28;47.43
47588;BME280;34356;45.788;12.046;2022-09-28T00:31:52;98798.08;;;15.28;47.44
47588;BME280;34356;45.788;12.046;2022-09-28T00:34:20;98795.62;;;15.03;47.30
47588;BME280;34356;45.788;12.046;2022-09-28T00:36:47;98794.26;;;15.27;47.28
47588;BME280;34356;45.788;12.046;2022-09-28T00:39:15;98789.00;;;14.95;47.29
47588;BME280;34356;45.788;12.046;2022-09-28T00:41:42;98786.22;;;14.95;47.16
47588;BME280;34356;45.788;12.046;2022-09-28T00:44:30;98783.27;;;14.96;47.04
47588;BME280;34356;45.788;12.046;2022-09-28T00:47:02;98778.96;;;14.58;46.94
47588;BME280;34356;45.788;12.046;2022-09-28T00:49:34;98777.41;;;15.37;46.76
47588;BME280;34356;45.788;12.046;2022-09-28T00:52:07;98771.82;;;14.87;46.69
47588;BME280;34356;45.788;12.046;2022-09-28T00:54:37;98769.62;;;15.28;46.78
47588;BME280;34356;45.788;12.046;2022-09-28T00:57:05;98767.49;;;14.89;46.90
47588;BME280;34356;45.788;12.046;2022-09-28T00:59:32;98763.94;;;14.83;47.08
47588;BME280;34356;45.788;12.046;2022-09-28T01:02:00;98764.44;;;14.68;47.02
47588;BME280;34356;45.788;12.046;2022-09-28T01:04:28;98764.99;;;14.73;46.98
47588;BME280;34356;45.788;12.046;2022-09-28T01:06:57;98763.52;;;14.55;46.91
47588;BME280;34356;45.788;12.046;2022-09-28T01:09:25;98761.68;;;15.01;46.92
47588;BME280;34356;45.788;12.046;2022-09-28T01:11:54;98762.95;;;14.74;46.98
47588;BME280;34356;45.788;12.046;2022-09-28T01:14:22;98760.59;;;14.66;47.04
47588;BME280;34356;45.788;12.046;2022-09-28T01:16:59;98760.92;;;14.81;47.05
47588;BME280;34356;45.788;12.046;2022-09-28T01:19:45;98761.19;;;14.73;47.17
47588;BME280;34356;45.788;12.046;2022-09-28T01:22:26;98761.21;;;14.94;47.19
47588;BME280;34356;45.788;12.046;2022-09-28T01:24:59;98758.16;;;14.32;47.31
47588;BME280;34356;45.788;12.046;2022-09-28T01:27:32;98757.33;;;14.73;47.44
47588;BME280;34356;45.788;12.046;2022-09-28T01:30:04;98760.32;;;14.67;47.49
47588;BME280;34356;45.788;12.046;2022-09-28T01:32:37;98757.25;;;14.33;47.69
47588;BME280;34356;45.788;12.046;2022-09-28T01:35:12;98750.70;;;14.61;47.61
47588;BME280;34356;45.788;12.046;2022-09-28T01:37:45;98751.80;;;14.61;47.68
47588;BME280;34356;45.788;12.046;2022-09-28T01:40:15;98752.67;;;14.61;47.66
47588;BME280;34356;45.788;12.046;2022-09-28T01:42:45;98758.83;;;14.55;47.74
47588;BME280;34356;45.788;12.046;2022-09-28T01:45:17;98761.88;;;14.27;47.80
47588;BME280;34356;45.788;12.046;2022-09-28T01:47:48;98764.98;;;14.54;47.80
47588;BME280;34356;45.788;12.046;2022-09-28T01:50:18;98768.26;;;14.51;47.84
47588;BME280;34356;45.788;12.046;2022-09-28T01:52:50;98775.65;;;14.52;47.88
47588;BME280;34356;45.788;12.046;2022-09-28T01:55:24;98783.95;;;14.55;47.87
47588;BME280;34356;45.788;12.046;2022-09-28T01:57:57;98787.91;;;14.55;47.84
47588;BME280;34356;45.788;12.046;2022-09-28T02:00:26;98789.03;;;14.51;47.85
47588;BME280;34356;45.788;12.046;2022-09-28T02:02:57;98787.20;;;14.45;47.91
47588;BME280;34356;45.788;12.046;2022-09-28T02:05:29;98779.02;;;14.53;48.09
47588;BME280;34356;45.788;12.046;2022-09-28T02:08:02;98777.83;;;13.98;48.18
47588;BME280;34356;45.788;12.046;2022-09-28T02:10:34;98776.75;;;14.25;48.15
47588;BME280;34356;45.788;12.046;2022-09-28T02:13:07;98767.59;;;14.30;48.06
47588;BME280;34356;45.788;12.046;2022-09-28T02:15:43;98765.33;;;14.37;48.01
47588;BME280;34356;45.788;12.046;2022-09-28T02:18:12;98756.63;;;14.44;47.95
47588;BME280;34356;45.788;12.046;2022-09-28T02:20:44;98759.04;;;14.49;47.87
47588;BME280;34356;45.788;12.046;2022-09-28T02:23:14;98763.85;;;14.53;47.84
47588;BME280;34356;45.788;12.046;2022-09-28T02:25:45;98768.27;;;14.50;47.87
47588;BME280;34356;45.788;12.046;2022-09-28T02:28:13;98772.59;;;14.22;47.86
47588;BME280;34356;45.788;12.046;2022-09-28T02:30:42;98772.28;;;14.48;47.99
47588;BME280;34356;45.788;12.046;2022-09-28T02:33:14;98767.13;;;14.51;47.94
47588;BME280;34356;45.788;12.046;2022-09-28T02:35:42;98765.93;;;14.54;47.84
47588;BME280;34356;45.788;12.046;2022-09-28T02:38:11;98769.30;;;14.56;47.81
47588;BME280;34356;45.788;12.046;2022-09-28T02:40:39;98773.38;;;14.35;47.73
47588;BME280;34356;45.788;12.046;2022-09-28T02:43:15;98768.31;;;14.65;47.75
47588;BME280;34356;45.788;12.046;2022-09-28T02:45:58;98764.22;;;14.41;47.78
47588;BME280;34356;45.788;12.046;2022-09-28T02:48:44;98754.75;;;14.68;47.80
47588;BME280;34356;45.788;12.046;2022-09-28T02:51:21;98762.99;;;14.63;47.84
47588;BME280;34356;45.788;12.046;2022-09-28T02:54:07;98763.43;;;14.61;47.86
47588;BME280;34356;45.788;12.046;2022-09-28T02:56:52;98760.85;;;14.64;47.96
47588;BME280;34356;45.788;12.046;2022-09-28T02:59:38;98761.16;;;14.66;47.95
47588;BME280;34356;45.788;12.046;2022-09-28T03:02:12;98759.33;;;14.71;47.96
47588;BME280;34356;45.788;12.046;2022-09-28T03:04:51;98763.14;;;14.77;47.90
47588;BME280;34356;45.788;12.046;2022-09-28T03:07:26;98764.61;;;14.80;47.89
47588;BME280;34356;45.788;12.046;2022-09-28T03:09:59;98771.26;;;14.35;47.84
47588;BME280;34356;45.788;12.046;2022-09-28T03:12:28;98775.34;;;14.85;47.90
47588;BME280;34356;45.788;12.046;2022-09-28T03:15:18;98774.22;;;14.41;47.92
47588;BME280;34356;45.788;12.046;2022-09-28T03:17:46;98770.38;;;14.93;47.85
47588;BME280;34356;45.788;12.046;2022-09-28T03:20:14;98768.69;;;14.62;47.96
47588;BME280;34356;45.788;12.046;2022-09-28T03:22:42;98768.97;;;14.85;48.09
47588;BME280;34356;45.788;12.046;2022-09-28T03:25:09;98764.74;;;14.55;48.04
47588;BME280;34356;45.788;12.046;2022-09-28T03:27:37;98763.28;;;15.03;48.08
47588;BME280;34356;45.788;12.046;2022-09-28T03:30:05;98768.14;;;14.51;48.26
47588;BME280;34356;45.788;12.046;2022-09-28T03:32:33;98772.25;;;14.60;48.22
47588;BME280;34356;45.788;12.046;2022-09-28T03:34:59;98775.83;;;14.44;48.38
47588;BME280;34356;45.788;12.046;2022-09-28T03:37:27;98776.81;;;14.69;48.34
47588;BME280;34356;45.788;12.046;2022-09-28T03:39:54;98778.90;;;14.51;48.30
47588;BME280;34356;45.788;12.046;2022-09-28T03:42:22;98776.48;;;15.07;48.08
47588;BME280;34356;45.788;12.046;2022-09-28T03:44:48;98764.30;;;15.04;48.08
47588;BME280;34356;45.788;12.046;2022-09-28T03:47:16;98755.11;;;14.98;48.12
47588;BME280;34356;45.788;12.046;2022-09-28T03:49:44;98750.41;;;14.90;48.19
47588;BME280;34356;45.788;12.046;2022-09-28T03:52:13;98755.08;;;14.61;48.13
47588;BME280;34356;45.788;12.046;2022-09-28T03:54:40;98762.53;;;14.85;48.11
47588;BME280;34356;45.788;12.046;2022-09-28T03:57:07;98762.86;;;14.85;48.12
47588;BME280;34356;45.788;12.046;2022-09-28T03:59:34;98768.85;;;14.90;48.08
47588;BME280;34356;45.788;12.046;2022-09-28T04:02:02;98769.91;;;14.48;47.98
47588;BME280;34356;45.788;12.046;2022-09-28T04:04:29;98771.07;;;14.99;47.93
47588;BME280;34356;45.788;12.046;2022-09-28T04:06:56;98771.50;;;14.31;47.94
47588;BME280;34356;45.788;12.046;2022-09-28T04:09:24;98765.55;;;14.80;47.90
47588;BME280;34356;45.788;12.046;2022-09-28T04:11:51;98758.31;;;14.84;47.74
47588;BME280;34356;45.788;12.046;2022-09-28T04:14:18;98749.93;;;15.02;47.94
47588;BME280;34356;45.788;12.046;2022-09-28T04:16:46;98744.11;;;15.03;47.90
47588;BME280;34356;45.788;12.046;2022-09-28T04:19:13;98742.48;;;14.75;47.88
47588;BME280;34356;45.788;12.046;2022-09-28T04:21:40;98740.25;;;14.78;47.81
47588;BME280;34356;45.788;12.046;2022-09-28T04:24:09;98735.99;;;14.86;47.74
47588;BME280;34356;45.788;12.046;2022-09-28T04:26:36;98736.53;;;15.20;47.71
47588;BME280;34356;45.788;12.046;2022-09-28T04:29:03;98736.86;;;14.97;47.73
47588;BME280;34356;45.788;12.046;2022-09-28T04:31:37;98736.59;;;15.26;47.76
47588;BME280;34356;45.788;12.046;2022-09-28T04:34:04;98740.43;;;14.81;47.71
47588;BME280;34356;45.788;12.046;2022-09-28T04:36:31;98744.73;;;15.03;47.70
47588;BME280;34356;45.788;12.046;2022-09-28T04:38:58;98752.88;;;14.54;47.78
47588;BME280;34356;45.788;12.046;2022-09-28T04:41:25;98760.39;;;15.23;47.74
47588;BME280;34356;45.788;12.046;2022-09-28T04:43:53;98765.21;;;14.89;47.80
47588;BME280;34356;45.788;12.046;2022-09-28T04:46:20;98768.76;;;14.61;47.81
47588;BME280;34356;45.788;12.046;2022-09-28T04:48:47;98768.31;;;14.80;47.99
47588;BME280;34356;45.788;12.046;2022-09-28T04:51:13;98760.59;;;15.04;47.97
47588;BME280;34356;45.788;12.046;2022-09-28T04:53:40;98757.33;;;14.71;48.05
47588;BME280;34356;45.788;12.046;2022-09-28T04:56:10;98753.80;;;14.70;48.10
47588;BME280;34356;45.788;12.046;2022-09-28T04:58:38;98754.88;;;14.86;48.23
47588;BME280;34356;45.788;12.046;2022-09-28T05:01:06;98756.18;;;14.36;48.19
47588;BME280;34356;45.788;12.046;2022-09-28T05:03:35;98759.09;;;14.87;48.06
47588;BME280;34356;45.788;12.046;2022-09-28T05:06:03;98755.91;;;14.31;48.38
47588;BME280;34356;45.788;12.046;2022-09-28T05:08:31;98752.86;;;14.72;48.48
47588;BME280;34356;45.788;12.046;2022-09-28T05:11:00;98751.14;;;14.44;48.46
47588;BME280;34356;45.788;12.046;2022-09-28T05:13:28;98752.13;;;14.69;48.49
47588;BME280;34356;45.788;12.046;2022-09-28T05:15:57;98754.89;;;14.38;48.59
47588;BME280;34356;45.788;12.046;2022-09-28T05:18:25;98761.43;;;14.66;48.50
47588;BME280;34356;45.788;12.046;2022-09-28T05:20:53;98759.75;;;14.44;48.47
47588;BME280;34356;45.788;12.046;2022-09-28T05:23:20;98761.30;;;14.77;48.35
47588;BME280;34356;45.788;12.046;2022-09-28T05:25:47;98762.75;;;14.63;48.26
47588;BME280;34356;45.788;12.046;2022-09-28T05:28:23;98761.70;;;14.96;48.34
47588;BME280;34356;45.788;12.046;2022-09-28T05:30:51;98758.82;;;14.77;48.42
47588;BME280;34356;45.788;12.046;2022-09-28T05:33:18;98762.00;;;14.97;48.33
47588;BME280;34356;45.788;12.046;2022-09-28T05:35:45;98760.67;;;14.96;48.58
47588;BME280;34356;45.788;12.046;2022-09-28T05:38:12;98756.95;;;14.71;48.39
47588;BME280;34356;45.788;12.046;2022-09-28T05:40:39;98759.41;;;14.96;48.26
47588;BME280;34356;45.788;12.046;2022-09-28T05:43:06;98761.24;;;14.66;48.29
47588;BME280;34356;45.788;12.046;2022-09-28T05:45:33;98761.16;;;14.91;48.22
47588;BME280;34356;45.788;12.046;2022-09-28T05:48:00;98759.75;;;14.60;48.33
47588;BME280;34356;45.788;12.046;2022-09-28T05:50:28;98759.13;;;14.85;48.38
47588;BME280;34356;45.788;12.046;2022-09-28T05:52:57;98758.88;;;14.32;48.44
47588;BME280;34356;45.788;12.046;2022-09-28T05:55:26;98758.11;;;14.80;48.47
47588;BME280;34356;45.788;12.046;2022-09-28T05:57:57;98759.85;;;14.84;48.48
47588;BME280;34356;45.788;12.046;2022-09-28T06:00:25;98758.67;;;14.88;48.44
47588;BME280;34356;45.788;12.046;2022-09-28T06:02:57;98757.34;;;14.95;47.95
47588;BME280;34356;45.788;12.046;2022-09-28T06:05:25;98762.78;;;14.94;47.46
47588;BME280;34356;45.788;12.046;2022-09-28T06:07:55;98761.45;;;14.66;47.32
47588;BME280;34356;45.788;12.046;2022-09-28T06:10:22;98760.52;;;14.76;47.17
47588;BME280;34356;45.788;12.046;2022-09-28T06:12:52;98760.13;;;15.15;47.23
47588;BME280;34356;45.788;12.046;2022-09-28T06:15:19;98754.70;;;15.22;47.28
47588;BME280;34356;45.788;12.046;2022-09-28T06:17:47;98753.10;;;15.25;47.37
47588;BME280;34356;45.788;12.046;2022-09-28T06:20:14;98751.27;;;14.80;47.74
47588;BME280;34356;45.788;12.046;2022-09-28T06:22:41;98752.66;;;15.10;47.70
47588;BME280;34356;45.788;12.046;2022-09-28T06:25:09;98753.04;;;15.15;47.32
47588;BME280;34356;45.788;12.046;2022-09-28T06:27:36;98747.46;;;15.22;46.97
47588;BME280;34356;45.788;12.046;2022-09-28T06:30:04;98751.59;;;15.14;46.26
47588;BME280;34356;45.788;12.046;2022-09-28T06:32:31;98751.14;;;15.39;45.93
47588;BME280;34356;45.788;12.046;2022-09-28T06:34:58;98748.04;;;15.17;45.58
47588;BME280;34356;45.788;12.046;2022-09-28T06:37:24;98744.61;;;15.62;45.04
47588;BME280;34356;45.788;12.046;2022-09-28T06:39:52;98743.99;;;15.56;44.80
47588;BME280;34356;45.788;12.046;2022-09-28T06:42:19;98743.70;;;15.34;44.77
47588;BME280;34356;45.788;12.046;2022-09-28T06:44:47;98741.64;;;15.63;44.43
47588;BME280;34356;45.788;12.046;2022-09-28T06:47:13;98742.32;;;15.64;43.40
47588;BME280;34356;45.788;12.046;2022-09-28T06:49:40;98743.88;;;15.29;43.86
47588;BME280;34356;45.788;12.046;2022-09-28T06:52:07;98745.89;;;15.31;43.96
47588;BME280;34356;45.788;12.046;2022-09-28T06:54:34;98746.03;;;15.64;43.67
47588;BME280;34356;45.788;12.046;2022-09-28T06:57:01;98747.77;;;15.18;43.87
47588;BME280;34356;45.788;12.046;2022-09-28T06:59:28;98747.83;;;15.73;44.34
47588;BME280;34356;45.788;12.046;2022-09-28T07:01:55;98743.17;;;15.22;44.90
47588;BME280;34356;45.788;12.046;2022-09-28T07:04:23;98741.91;;;15.39;45.21
47588;BME280;34356;45.788;12.046;2022-09-28T07:06:51;98738.47;;;15.39;45.39
47588;BME280;34356;45.788;12.046;2022-09-28T07:09:18;98735.55;;;15.16;45.40
47588;BME280;34356;45.788;12.046;2022-09-28T07:11:45;98733.10;;;15.48;45.23
47588;BME280;34356;45.788;12.046;2022-09-28T07:14:12;98733.57;;;15.58;45.34
47588;BME280;34356;45.788;12.046;2022-09-28T07:16:39;98732.85;;;15.30;45.51
47588;BME280;34356;45.788;12.046;2022-09-28T07:19:06;98727.08;;;15.82;45.52
47588;BME280;34356;45.788;12.046;2022-09-28T07:21:33;98724.09;;;15.80;45.64
47588;BME280;34356;45.788;12.046;2022-09-28T07:24:01;98723.10;;;15.10;45.57
47588;BME280;34356;45.788;12.046;2022-09-28T07:26:29;98715.72;;;15.64;45.45
47588;BME280;34356;45.788;12.046;2022-09-28T07:28:56;98715.97;;;15.43;45.10
47588;BME280;34356;45.788;12.046;2022-09-28T07:31:23;98719.00;;;15.61;45.04
47588;BME280;34356;45.788;12.046;2022-09-28T07:33:50;98717.37;;;15.64;44.94
47588;BME280;34356;45.788;12.046;2022-09-28T07:36:18;98720.16;;;15.70;44.91
47588;BME280;34356;45.788;12.046;2022-09-28T07:38:45;98721.97;;;16.04;44.79
47588;BME280;34356;45.788;12.046;2022-09-28T07:41:13;98723.33;;;15.64;44.78
47588;BME280;34356;45.788;12.046;2022-09-28T07:43:40;98726.28;;;15.75;44.71
47588;BME280;34356;45.788;12.046;2022-09-28T07:46:08;98727.74;;;15.79;45.88
47588;BME280;34356;45.788;12.046;2022-09-28T07:48:39;98727.68;;;16.09;45.15
47588;BME280;34356;45.788;12.046;2022-09-28T07:51:08;98728.22;;;16.21;44.92
47588;BME280;34356;45.788;12.046;2022-09-28T07:53:35;98726.41;;;16.26;44.68
47588;BME280;34356;45.788;12.046;2022-09-28T07:56:04;98724.15;;;16.09;44.91
47588;BME280;34356;45.788;12.046;2022-09-28T07:58:31;98719.65;;;16.39;44.79
47588;BME280;34356;45.788;12.046;2022-09-28T08:01:03;98720.77;;;16.13;44.94
47588;BME280;34356;45.788;12.046;2022-09-28T08:03:31;98715.68;;;16.47;44.95
47588;BME280;34356;45.788;12.046;2022-09-28T08:05:58;98712.66;;;16.02;45.00
47588;BME280;34356;45.788;12.046;2022-09-28T08:08:26;98710.28;;;16.77;45.15
47588;BME280;34356;45.788;12.046;2022-09-28T08:10:53;98711.26;;;16.34;45.06
47588;BME280;34356;45.788;12.046;2022-09-28T08:13:20;98717.14;;;16.39;44.97
47588;BME280;34356;45.788;12.046;2022-09-28T08:15:47;98717.21;;;16.87;44.96
47588;BME280;34356;45.788;12.046;2022-09-28T08:18:14;98719.74;;;16.68;44.97
47588;BME280;34356;45.788;12.046;2022-09-28T08:20:41;98722.19;;;16.48;45.03
47588;BME280;34356;45.788;12.046;2022-09-28T08:23:09;98721.33;;;16.70;45.22
47588;BME280;34356;45.788;12.046;2022-09-28T08:25:36;98720.03;;;16.66;45.30
47588;BME280;34356;45.788;12.046;2022-09-28T08:28:04;98718.38;;;16.86;45.38
47588;BME280;34356;45.788;12.046;2022-09-28T08:30:32;98719.58;;;16.87;45.36
47588;BME280;34356;45.788;12.046;2022-09-28T08:32:59;98720.62;;;16.40;45.36
47588;BME280;34356;45.788;12.046;2022-09-28T08:35:26;98721.22;;;16.74;45.27
47588;BME280;34356;45.788;12.046;2022-09-28T08:37:53;98720.43;;;16.58;45.13
47588;BME280;34356;45.788;12.046;2022-09-28T08:40:22;98716.29;;;16.66;44.98
47588;BME280;34356;45.788;12.046;2022-09-28T08:42:54;98710.89;;;16.74;44.81
47588;BME280;34356;45.788;12.046;2022-09-28T08:45:26;98707.61;;;16.79;44.69
47588;BME280;34356;45.788;12.046;2022-09-28T08:48:00;98704.70;;;16.85;44.60
47588;BME280;34356;45.788;12.046;2022-09-28T08:50:31;98704.85;;;16.91;44.47
47588;BME280;34356;45.788;12.046;2022-09-28T08:53:01;98710.78;;;16.84;44.36
47588;BME280;34356;45.788;12.046;2022-09-28T08:55:32;98713.05;;;17.11;44.32
47588;BME280;34356;45.788;12.046;2022-09-28T08:58:04;98715.64;;;17.19;44.18
47588;BME280;34356;45.788;12.046;2022-09-28T09:00:39;98719.61;;;17.04;44.17
47588;BME280;34356;45.788;12.046;2022-09-28T09:03:12;98723.01;;;17.12;44.08
47588;BME280;34356;45.788;12.046;2022-09-28T09:05:53;98729.24;;;17.24;43.99
47588;BME280;34356;45.788;12.046;2022-09-28T09:08:39;98737.77;;;17.35;44.00
47588;BME280;34356;45.788;12.046;2022-09-28T09:11:17;98742.63;;;17.47;43.92
47588;BME280;34356;45.788;12.046;2022-09-28T09:14:01;98745.28;;;17.81;43.77
47588;BME280;34356;45.788;12.046;2022-09-28T09:16:39;98747.57;;;17.54;43.75
47588;BME280;34356;45.788;12.046;2022-09-28T09:19:14;98744.08;;;17.61;43.66
47588;BME280;34356;45.788;12.046;2022-09-28T09:21:46;98743.20;;;17.63;43.49
47588;BME280;34356;45.788;12.046;2022-09-28T09:24:23;98744.11;;;17.72;43.45
47588;BME280;34356;45.788;12.046;2022-09-28T09:26:58;98743.26;;;18.02;43.30
47588;BME280;34356;45.788;12.046;2022-09-28T09:29:39;98742.85;;;17.89;43.34
47588;BME280;34356;45.788;12.046;2022-09-28T09:32:21;98742.72;;;17.73;43.25
47588;BME280;34356;45.788;12.046;2022-09-28T09:35:00;98735.08;;;17.84;42.94
47588;BME280;34356;45.788;12.046;2022-09-28T09:37:50;98731.25;;;17.90;42.82
47588;BME280;34356;45.788;12.046;2022-09-28T09:40:37;98722.38;;;18.25;42.30
47588;BME280;34356;45.788;12.046;2022-09-28T09:43:32;98717.78;;;18.13;41.79
47588;BME280;34356;45.788;12.046;2022-09-28T09:46:11;98711.46;;;18.06;41.60
47588;BME280;34356;45.788;12.046;2022-09-28T09:48:47;98704.72;;;18.45;41.40
47588;BME280;34356;45.788;12.046;2022-09-28T09:51:22;98696.76;;;18.57;41.40
47588;BME280;34356;45.788;12.046;2022-09-28T09:53:53;98691.83;;;18.51;41.16
47588;BME280;34356;45.788;12.046;2022-09-28T09:56:29;98691.64;;;18.63;40.93
47588;BME280;34356;45.788;12.046;2022-09-28T09:59:01;98691.54;;;18.55;40.61
47588;BME280;34356;45.788;12.046;2022-09-28T10:01:35;98698.04;;;18.85;40.36
47588;BME280;34356;45.788;12.046;2022-09-28T10:04:05;98703.08;;;18.73;40.59
47588;BME280;34356;45.788;12.046;2022-09-28T10:06:35;98707.57;;;18.78;40.19
47588;BME280;34356;45.788;12.046;2022-09-28T10:09:04;98706.11;;;18.85;39.88
47588;BME280;34356;45.788;12.046;2022-09-28T10:11:34;98700.41;;;18.95;40.03
47588;BME280;34356;45.788;12.046;2022-09-28T10:14:02;98696.44;;;18.75;39.61
47588;BME280;34356;45.788;12.046;2022-09-28T10:16:30;98700.91;;;19.32;39.55
47588;BME280;34356;45.788;12.046;2022-09-28T10:18:59;98705.15;;;19.17;39.57
47588;BME280;34356;45.788;12.046;2022-09-28T10:21:26;98706.50;;;19.22;39.57
47588;BME280;34356;45.788;12.046;2022-09-28T10:23:56;98708.99;;;19.18;39.38
47588;BME280;34356;45.788;12.046;2022-09-28T10:26:26;98710.51;;;19.18;39.35
47588;BME280;34356;45.788;12.046;2022-09-28T10:28:58;98713.38;;;18.91;39.15
47588;BME280;34356;45.788;12.046;2022-09-28T10:31:44;98716.61;;;19.20;38.77
47588;BME280;34356;45.788;12.046;2022-09-28T10:34:14;98717.80;;;19.25;38.74
47588;BME280;34356;45.788;12.046;2022-09-28T10:36:46;98716.82;;;19.17;39.03
47588;BME280;34356;45.788;12.046;2022-09-28T10:39:26;98713.68;;;19.08;38.71
47588;BME280;34356;45.788;12.046;2022-09-28T10:41:54;98710.27;;;19.01;38.70
47588;BME280;34356;45.788;12.046;2022-09-28T10:44:22;98703.81;;;19.27;38.82
47588;BME280;34356;45.788;12.046;2022-09-28T10:46:56;98705.15;;;19.14;38.82
47588;BME280;34356;45.788;12.046;2022-09-28T10:49:26;98705.36;;;19.32;38.85
47588;BME280;34356;45.788;12.046;2022-09-28T10:51:54;98706.13;;;19.40;38.72
47588;BME280;34356;45.788;12.046;2022-09-28T10:54:23;98703.93;;;19.47;38.52
47588;BME280;34356;45.788;12.046;2022-09-28T10:56:52;98704.26;;;19.73;38.60
47588;BME280;34356;45.788;12.046;2022-09-28T10:59:23;98700.87;;;19.44;38.75
47588;BME280;34356;45.788;12.046;2022-09-28T11:02:01;98700.00;;;19.45;38.52
47588;BME280;34356;45.788;12.046;2022-09-28T11:04:38;98697.84;;;19.64;38.65
47588;BME280;34356;45.788;12.046;2022-09-28T11:07:14;98694.32;;;19.13;38.52
47588;BME280;34356;45.788;12.046;2022-09-28T11:09:46;98695.16;;;19.53;38.54
47588;BME280;34356;45.788;12.046;2022-09-28T11:12:17;98697.28;;;19.68;38.38
47588;BME280;34356;45.788;12.046;2022-09-28T11:14:45;98694.69;;;19.80;38.37
47588;BME280;34356;45.788;12.046;2022-09-28T11:17:15;98687.90;;;19.85;37.88
47588;BME280;34356;45.788;12.046;2022-09-28T11:19:42;98690.37;;;19.89;37.86
47588;BME280;34356;45.788;12.046;2022-09-28T11:22:28;98688.74;;;19.67;37.87
47588;BME280;34356;45.788;12.046;2022-09-28T11:25:21;98680.66;;;19.67;37.99
47588;BME280;34356;45.788;12.046;2022-09-28T11:27:58;98678.07;;;20.09;37.48
47588;BME280;34356;45.788;12.046;2022-09-28T11:30:29;98671.72;;;20.35;37.49
47588;BME280;34356;45.788;12.046;2022-09-28T11:33:02;98668.36;;;19.42;37.29
47588;BME280;34356;45.788;12.046;2022-09-28T11:35:41;98667.23;;;20.30;37.48
47588;BME280;34356;45.788;12.046;2022-09-28T11:38:22;98669.15;;;20.26;37.17
47588;BME280;34356;45.788;12.046;2022-09-28T11:41:04;98661.12;;;20.43;37.10
47588;BME280;34356;45.788;12.046;2022-09-28T11:43:51;98654.94;;;20.70;36.76
47588;BME280;34356;45.788;12.046;2022-09-28T11:46:28;98647.24;;;20.80;36.69
47588;BME280;34356;45.788;12.046;2022-09-28T11:49:02;98640.19;;;20.65;36.60
47588;BME280;34356;45.788;12.046;2022-09-28T11:51:35;98636.13;;;20.70;36.47
47588;BME280;34356;45.788;12.046;2022-09-28T11:54:13;98636.52;;;20.59;36.55
47588;BME280;34356;45.788;12.046;2022-09-28T11:56:43;98635.54;;;21.00;36.70
47588;BME280;34356;45.788;12.046;2022-09-28T11:59:17;98634.46;;;21.06;36.30
47588;BME280;34356;45.788;12.046;2022-09-28T12:01:48;98634.38;;;21.19;36.43
47588;BME280;34356;45.788;12.046;2022-09-28T12:04:23;98633.74;;;20.90;36.61
47588;BME280;34356;45.788;12.046;2022-09-28T12:06:55;98629.26;;;20.89;36.63
47588;BME280;34356;45.788;12.046;2022-09-28T12:09:31;98628.16;;;20.87;36.68
47588;BME280;34356;45.788;12.046;2022-09-28T12:12:02;98631.98;;;20.76;36.79
47588;BME280;34356;45.788;12.046;2022-09-28T12:14:34;98635.02;;;20.79;36.69
47588;BME280;34356;45.788;12.046;2022-09-28T12:17:09;98631.56;;;20.38;36.87
47588;BME280;34356;45.788;12.046;2022-09-28T12:19:47;98629.46;;;20.91;36.71
47588;BME280;34356;45.788;12.046;2022-09-28T12:22:20;98628.71;;;20.96;36.81
47588;BME280;34356;45.788;12.046;2022-09-28T12:24:50;98630.01;;;21.11;36.85
47588;BME280;34356;45.788;12.046;2022-09-28T12:27:25;98629.00;;;21.30;36.75
47588;BME280;34356;45.788;12.046;2022-09-28T12:29:59;98623.46;;;21.02;36.68
47588;BME280;34356;45.788;12.046;2022-09-28T12:32:34;98618.28;;;21.13;36.22
47588;BME280;34356;45.788;12.046;2022-09-28T12:35:11;98614.62;;;21.16;36.03
47588;BME280;34356;45.788;12.046;2022-09-28T12:37:52;98611.48;;;21.70;36.10
47588;BME280;34356;45.788;12.046;2022-09-28T12:40:32;98607.49;;;21.24;35.95
47588;BME280;34356;45.788;12.046;2022-09-28T12:43:16;98603.30;;;21.29;36.08
47588;BME280;34356;45.788;12.046;2022-09-28T12:46:06;98602.02;;;21.65;36.04
47588;BME280;34356;45.788;12.046;2022-09-28T12:48:52;98601.80;;;21.66;36.06
47588;BME280;34356;45.788;12.046;2022-09-28T12:51:38;98601.31;;;21.24;35.75
47588;BME280;34356;45.788;12.046;2022-09-28T12:54:23;98603.16;;;21.10;35.83
47588;BME280;34356;45.788;12.046;2022-09-28T12:57:03;98596.78;;;21.35;35.92
47588;BME280;34356;45.788;12.046;2022-09-28T12:59:37;98594.25;;;21.40;35.80
47588;BME280;34356;45.788;12.046;2022-09-28T13:02:29;98598.44;;;21.25;35.72
47588;BME280;34356;45.788;12.046;2022-09-28T13:05:15;98599.18;;;21.39;35.50
47588;BME280;34356;45.788;12.046;2022-09-28T13:07:49;98596.55;;;21.52;35.69
47588;BME280;34356;45.788;12.046;2022-09-28T13:10:28;98594.94;;;21.53;35.53
47588;BME280;34356;45.788;12.046;2022-09-28T13:13:10;98591.81;;;21.43;35.41